Time;durP1;ratioP1;P1;durP2;ratioP2;P2;SDS_P1;SDS_P2;PMS_P1;PMS_P2;Temp;Humidity;BMP_temperature;BMP_pressure;BME280_temperature;BME280_humidity;BME280_pressure;Samples;Min_cycle;Max_cycle;Signal;HPM_P1;HPM_P2
2022/03/23 00:00:55;;;;;;;5.97;5.25;;;4.10;99.90;;;;;;468227;254;27962;-74
2022/03/23 00:02:56;;;;;;;5.85;5.03;;;4.10;99.90;;;;;;468220;254;27457;-71
2022/03/23 00:04:57;;;;;;;5.25;4.75;;;4.10;99.90;;;;;;468229;254;27452;-70
2022/03/23 00:07:02;;;;;;;6.60;5.43;;;4.00;99.90;;;;;;468198;254;27901;-70
2022/03/23 00:09:00;;;;;;;5.40;4.90;;;4.10;99.90;;;;;;467867;253;27941;-71
2022/03/23 00:11:02;;;;;;;5.22;4.72;;;4.10;99.90;;;;;;468227;254;27922;-71
2022/03/23 00:13:03;;;;;;;5.43;4.93;;;4.10;99.90;;;;;;468236;254;27517;-71
2022/03/23 00:15:05;;;;;;;9.73;4.97;;;4.10;99.90;;;;;;468217;254;27453;-71
2022/03/23 00:17:06;;;;;;;6.95;5.62;;;4.10;99.90;;;;;;468223;254;28661;-71
2022/03/23 00:19:07;;;;;;;5.40;4.90;;;4.10;99.90;;;;;;468193;254;28049;-70
2022/03/23 00:21:08;;;;;;;6.00;5.05;;;4.10;99.90;;;;;;468222;254;27993;-73
2022/03/23 00:23:10;;;;;;;6.25;5.15;;;4.10;99.90;;;;;;468213;253;27409;-71
2022/03/23 00:25:11;;;;;;;6.00;5.40;;;4.10;99.90;;;;;;468205;254;27449;-70
2022/03/23 00:27:12;;;;;;;6.62;5.90;;;4.00;99.90;;;;;;468204;254;27537;-71
2022/03/23 00:29:13;;;;;;;8.35;6.43;;;4.00;99.90;;;;;;468222;254;27441;-71
2022/03/23 00:31:15;;;;;;;7.78;6.00;;;4.00;99.90;;;;;;468191;253;27537;-73
2022/03/23 00:33:16;;;;;;;7.43;5.60;;;3.90;99.90;;;;;;468228;254;27856;-71
2022/03/23 00:35:17;;;;;;;6.60;5.57;;;3.90;99.90;;;;;;468193;254;27935;-72
2022/03/23 00:37:19;;;;;;;6.15;5.37;;;3.90;99.90;;;;;;468222;254;27961;-71
2022/03/23 00:39:26;;;;;;;6.35;5.65;;;3.80;99.90;;;;;;468179;254;27465;-71
2022/03/23 00:41:27;;;;;;;7.12;6.10;;;3.70;99.90;;;;;;468215;254;27460;-71
2022/03/23 00:43:28;;;;;;;6.20;5.60;;;3.60;99.90;;;;;;468220;254;27519;-71
2022/03/23 00:45:29;;;;;;;6.28;5.55;;;3.60;99.90;;;;;;468203;254;27944;-72
2022/03/23 00:47:31;;;;;;;7.15;5.80;;;3.60;99.90;;;;;;468193;254;27952;-71
2022/03/23 00:49:32;;;;;;;5.62;5.07;;;3.60;99.90;;;;;;468213;254;28011;-71
2022/03/23 00:51:33;;;;;;;5.68;5.12;;;3.70;99.90;;;;;;468227;254;27939;-71
2022/03/23 00:53:34;;;;;;;7.37;5.55;;;3.70;99.90;;;;;;468186;254;27437;-71
2022/03/23 00:55:36;;;;;;;5.32;4.82;;;3.60;99.90;;;;;;468212;254;27540;-71
2022/03/23 00:57:37;;;;;;;7.25;5.87;;;3.60;99.90;;;;;;468190;254;27869;-71
2022/03/23 00:59:38;;;;;;;6.57;4.95;;;3.60;99.90;;;;;;468190;254;27961;-71
2022/03/23 01:01:40;;;;;;;6.32;5.40;;;3.60;99.90;;;;;;468200;254;28023;-74
2022/03/23 01:03:41;;;;;;;5.20;4.70;;;3.60;99.90;;;;;;468223;254;27489;-70
2022/03/23 01:05:42;;;;;;;6.37;4.95;;;3.60;99.90;;;;;;468199;254;27557;-71
2022/03/23 01:07:43;;;;;;;7.20;5.47;;;3.50;99.90;;;;;;468225;254;27893;-71
2022/03/23 01:09:46;;;;;;;6.82;4.70;;;3.50;99.90;;;;;;468186;254;27957;-71
2022/03/23 01:11:47;;;;;;;7.65;5.90;;;3.50;99.90;;;;;;468237;254;27533;-71
2022/03/23 01:13:48;;;;;;;5.60;5.00;;;3.50;99.90;;;;;;468234;254;27448;-72
2022/03/23 01:15:49;;;;;;;6.07;5.47;;;3.50;99.90;;;;;;468224;254;27964;-71
2022/03/23 01:17:51;;;;;;;5.65;5.15;;;3.50;99.90;;;;;;468237;254;27924;-72
2022/03/23 01:19:52;;;;;;;5.90;5.18;;;3.50;99.90;;;;;;468223;254;28987;-71
2022/03/23 01:21:53;;;;;;;6.45;4.72;;;3.40;99.90;;;;;;468280;254;28031;-70
2022/03/23 01:23:54;;;;;;;6.50;5.80;;;3.50;99.90;;;;;;468180;254;27449;-72
2022/03/23 01:25:56;;;;;;;8.05;6.20;;;3.40;99.90;;;;;;468187;254;27413;-71
2022/03/23 01:27:57;;;;;;;7.15;5.75;;;3.40;99.90;;;;;;468198;254;27461;-72
2022/03/23 01:29:58;;;;;;;6.97;5.87;;;3.40;99.90;;;;;;468221;254;27433;-70
2022/03/23 01:31:59;;;;;;;7.25;5.65;;;3.40;99.90;;;;;;468227;254;27509;-71
2022/03/23 01:34:01;;;;;;;8.25;5.75;;;3.40;99.90;;;;;;468236;254;27464;-73
2022/03/23 01:38:12;;;;;;;6.50;5.50;;;3.30;99.90;;;;;;481448;242;29081;-70
2022/03/23 01:40:13;;;;;;;8.02;6.47;;;3.30;99.90;;;;;;491829;241;28001;-71
2022/03/23 01:42:15;;;;;;;8.50;6.10;;;3.20;99.90;;;;;;491839;242;27622;-70
2022/03/23 01:44:17;;;;;;;6.50;5.32;;;3.20;99.90;;;;;;491846;241;27565;-71
2022/03/23 01:46:17;;;;;;;6.82;5.60;;;3.20;99.90;;;;;;491783;242;27504;-72
2022/03/23 01:48:18;;;;;;;6.60;5.90;;;3.30;99.90;;;;;;491812;241;27460;-70
2022/03/23 01:50:20;;;;;;;6.20;5.60;;;3.30;99.90;;;;;;491841;241;27483;-70
2022/03/23 01:52:21;;;;;;;7.03;5.50;;;3.30;99.90;;;;;;491856;241;27532;-72
2022/03/23 01:54:22;;;;;;;7.37;5.87;;;3.30;99.90;;;;;;491842;241;27472;-70
2022/03/23 01:56:24;;;;;;;6.57;5.50;;;3.30;99.90;;;;;;491851;241;28049;-70
2022/03/23 01:58:25;;;;;;;6.70;5.57;;;3.20;99.90;;;;;;491808;241;27927;-70
2022/03/23 02:00:28;;;;;;;7.45;5.37;;;3.20;99.90;;;;;;491812;242;27930;-70
2022/03/23 02:02:27;;;;;;;10.63;7.37;;;3.20;99.90;;;;;;491707;242;28046;-72
2022/03/23 02:04:29;;;;;;;9.30;7.20;;;3.10;99.90;;;;;;491841;241;27538;-70
2022/03/23 02:06:30;;;;;;;9.50;6.93;;;3.10;99.90;;;;;;491861;242;27601;-70
2022/03/23 02:08:31;;;;;;;8.85;6.80;;;3.10;99.90;;;;;;491812;241;27547;-75
2022/03/23 02:10:32;;;;;;;8.90;6.72;;;3.00;99.90;;;;;;491872;241;27490;-70
2022/03/23 02:12:34;;;;;;;8.48;6.80;;;3.00;99.90;;;;;;491838;241;27536;-70
2022/03/23 02:14:35;;;;;;;7.93;6.68;;;3.10;99.90;;;;;;491817;241;27955;-70
2022/03/23 02:16:36;;;;;;;8.98;6.80;;;3.10;99.90;;;;;;491855;241;28006;-71
2022/03/23 02:18:37;;;;;;;9.48;7.37;;;3.10;99.90;;;;;;491838;242;27914;-73
2022/03/23 02:20:39;;;;;;;7.60;6.20;;;3.10;99.90;;;;;;491831;241;27934;-70
2022/03/23 02:22:40;;;;;;;8.38;6.30;;;3.10;99.90;;;;;;491867;241;27514;-72
2022/03/23 02:24:42;;;;;;;7.82;6.57;;;3.10;99.90;;;;;;491877;241;27465;-71
2022/03/23 02:26:43;;;;;;;7.53;6.28;;;3.10;99.90;;;;;;491879;241;27500;-70
2022/03/23 02:28:45;;;;;;;8.63;6.32;;;3.20;99.90;;;;;;491866;241;27494;-70
2022/03/23 02:30:46;;;;;;;6.90;6.12;;;3.20;99.90;;;;;;491865;241;27965;-72
2022/03/23 02:32:47;;;;;;;7.95;6.60;;;3.10;99.90;;;;;;491835;241;27916;-71
2022/03/23 02:34:48;;;;;;;8.20;6.00;;;3.10;99.90;;;;;;491868;242;28001;-70
2022/03/23 02:36:53;;;;;;;7.43;6.20;;;3.10;99.90;;;;;;491851;241;27469;-70
2022/03/23 02:38:54;;;;;;;8.30;6.55;;;3.10;99.90;;;;;;491918;241;27964;-71
2022/03/23 02:40:56;;;;;;;8.70;6.50;;;3.10;99.90;;;;;;491828;241;28025;-70
2022/03/23 02:42:57;;;;;;;8.35;6.70;;;3.00;99.90;;;;;;491829;241;27987;-71
2022/03/23 02:44:59;;;;;;;8.20;6.70;;;3.00;99.90;;;;;;491860;241;28065;-71
2022/03/23 02:47:01;;;;;;;8.73;7.05;;;3.00;99.90;;;;;;491786;242;27488;-71
2022/03/23 02:49:07;;;;;;;9.00;6.72;;;3.00;99.90;;;;;;491750;241;27583;-71
2022/03/23 02:51:08;;;;;;;9.48;7.25;;;3.00;99.90;;;;;;491832;241;27477;-71
2022/03/23 03:02:28;;;;;;;11.77;8.00;;;2.90;99.90;;;;;;491866;242;27563;-73
2022/03/23 03:04:29;;;;;;;10.63;8.10;;;2.90;99.90;;;;;;491878;242;27553;-72
2022/03/23 03:06:33;;;;;;;10.55;8.43;;;2.90;99.90;;;;;;491842;241;27512;-71
2022/03/23 03:08:50;;;;;;;9.57;7.53;;;2.80;99.90;;;;;;491851;242;27582;-71
2022/03/23 03:10:48;;;;;;;12.80;9.07;;;2.80;99.90;;;;;;491611;242;27492;-75
2022/03/23 03:12:50;;;;;;;9.13;7.70;;;2.80;99.90;;;;;;491844;241;27504;-73
2022/03/23 03:14:50;;;;;;;11.12;7.90;;;2.70;99.90;;;;;;491851;241;27559;-73
2022/03/23 03:16:52;;;;;;;10.65;8.00;;;2.70;99.90;;;;;;491828;241;28177;-72
2022/03/23 03:18:53;;;;;;;11.77;8.52;;;2.60;99.90;;;;;;491846;241;27496;-71
2022/03/23 03:20:54;;;;;;;11.10;8.13;;;2.70;99.90;;;;;;491839;241;27536;-72
2022/03/23 03:22:56;;;;;;;11.68;8.10;;;2.70;99.90;;;;;;491851;241;27975;-72
2022/03/23 03:24:57;;;;;;;10.65;7.60;;;2.70;99.90;;;;;;491854;241;27932;-72
2022/03/23 03:26:59;;;;;;;11.55;8.02;;;2.70;99.90;;;;;;491850;241;27631;-73
2022/03/23 03:29:00;;;;;;;12.27;8.05;;;2.60;99.90;;;;;;491848;241;27939;-72
2022/03/23 03:31:02;;;;;;;10.15;8.50;;;2.60;99.90;;;;;;491861;241;28085;-74
2022/03/23 03:33:03;;;;;;;10.20;7.45;;;2.60;99.90;;;;;;491840;241;27954;-72
2022/03/23 03:35:04;;;;;;;9.82;7.18;;;2.60;99.90;;;;;;491832;241;27598;-73
2022/03/23 03:37:05;;;;;;;9.40;7.40;;;2.60;99.90;;;;;;491810;241;27580;-71
2022/03/23 03:39:07;;;;;;;8.68;6.93;;;2.60;99.90;;;;;;491836;241;27535;-72
2022/03/23 03:41:08;;;;;;;10.07;7.30;;;2.60;99.90;;;;;;491839;242;27431;-76
2022/03/23 03:43:09;;;;;;;10.05;7.60;;;2.60;99.90;;;;;;491825;241;27568;-72
2022/03/23 03:45:10;;;;;;;11.80;7.93;;;2.60;99.90;;;;;;491782;241;27534;-72
2022/03/23 03:47:12;;;;;;;11.05;7.78;;;2.60;99.90;;;;;;491873;241;27472;-72
2022/03/23 03:49:15;;;;;;;10.93;7.25;;;2.50;99.90;;;;;;491814;241;27504;-72
2022/03/23 03:51:14;;;;;;;9.05;7.07;;;2.50;99.90;;;;;;491706;242;27980;-72
2022/03/23 03:53:15;;;;;;;10.90;7.37;;;2.50;99.90;;;;;;491853;241;28014;-72
2022/03/23 03:55:22;;;;;;;11.35;7.68;;;2.50;99.90;;;;;;491862;241;28062;-72
2022/03/23 03:57:24;;;;;;;9.18;7.60;;;2.50;99.90;;;;;;491841;241;27485;-72
2022/03/23 03:59:28;;;;;;;8.00;7.18;;;2.40;99.90;;;;;;491825;241;27613;-72
2022/03/23 04:01:28;;;;;;;8.85;7.28;;;2.40;99.90;;;;;;491794;242;27387;-72
2022/03/23 04:03:29;;;;;;;8.27;7.10;;;2.40;99.90;;;;;;491866;241;27422;-72
2022/03/23 04:05:31;;;;;;;9.55;6.80;;;2.40;99.90;;;;;;491872;241;27482;-72
2022/03/23 04:07:32;;;;;;;9.30;6.78;;;2.30;99.90;;;;;;491860;241;27461;-72
2022/03/23 04:09:33;;;;;;;11.57;7.97;;;2.30;99.90;;;;;;491867;241;28054;-73
2022/03/23 04:11:35;;;;;;;9.43;7.22;;;2.30;99.90;;;;;;491892;241;28045;-72
2022/03/23 04:13:36;;;;;;;10.82;7.50;;;2.30;99.90;;;;;;491902;241;28938;-72
2022/03/23 04:15:37;;;;;;;10.85;7.57;;;2.30;99.90;;;;;;491861;241;27452;-72
2022/03/23 04:17:38;;;;;;;9.30;7.00;;;2.30;99.90;;;;;;491866;241;27529;-72
2022/03/23 04:19:40;;;;;;;11.45;7.50;;;2.30;99.90;;;;;;491816;241;27403;-71
2022/03/23 04:21:41;;;;;;;9.25;7.43;;;2.40;99.90;;;;;;491853;241;27519;-78
2022/03/23 04:23:42;;;;;;;10.07;7.60;;;2.40;99.90;;;;;;491898;241;27570;-72
2022/03/23 04:25:43;;;;;;;9.18;7.00;;;2.40;99.90;;;;;;491859;241;27602;-75
2022/03/23 04:27:45;;;;;;;9.23;7.43;;;2.40;99.90;;;;;;491844;241;28000;-72
2022/03/23 04:29:46;;;;;;;13.35;7.70;;;2.30;99.90;;;;;;491823;241;28037;-71
2022/03/23 04:31:53;;;;;;;12.98;8.90;;;2.30;99.90;;;;;;491869;241;27890;-73
2022/03/23 04:33:54;;;;;;;9.23;7.25;;;2.30;99.90;;;;;;491856;241;27412;-72
2022/03/23 04:35:55;;;;;;;8.52;7.05;;;2.30;99.90;;;;;;491869;241;27475;-71
2022/03/23 04:37:57;;;;;;;10.45;7.97;;;2.30;99.90;;;;;;491856;241;27959;-72
2022/03/23 04:39:59;;;;;;;11.20;8.35;;;2.30;99.90;;;;;;491832;241;27975;-73
2022/03/23 04:41:59;;;;;;;11.07;8.15;;;2.30;99.90;;;;;;491804;241;28621;-71
2022/03/23 04:44:00;;;;;;;11.85;8.15;;;2.20;99.90;;;;;;491841;241;27498;-72
2022/03/23 04:46:02;;;;;;;11.40;8.30;;;2.10;99.90;;;;;;491845;241;27422;-72
2022/03/23 04:48:03;;;;;;;10.05;8.35;;;1.80;99.90;;;;;;491850;241;27472;-73
2022/03/23 04:50:05;;;;;;;11.98;8.43;;;1.70;99.90;;;;;;491828;241;27412;-71
2022/03/23 04:52:06;;;;;;;11.55;8.23;;;1.50;99.90;;;;;;491855;241;27476;-77
2022/03/23 04:54:07;;;;;;;10.82;8.10;;;1.40;99.90;;;;;;491860;241;27416;-72
2022/03/23 04:56:08;;;;;;;15.63;9.00;;;1.40;99.90;;;;;;491845;241;28019;-71
2022/03/23 04:58:09;;;;;;;11.82;8.20;;;1.60;99.90;;;;;;491859;241;27941;-71
2022/03/23 05:00:15;;;;;;;13.25;9.10;;;1.70;99.90;;;;;;491844;241;27441;-73
2022/03/23 05:02:15;;;;;;;13.95;9.32;;;1.70;99.90;;;;;;491704;242;27415;-71
2022/03/23 05:04:16;;;;;;;10.60;8.00;;;1.80;99.90;;;;;;491801;241;27412;-75
2022/03/23 05:06:17;;;;;;;11.35;9.07;;;1.90;99.90;;;;;;491835;241;27542;-72
2022/03/23 05:08:19;;;;;;;10.75;8.15;;;1.90;99.90;;;;;;491847;241;27481;-73
2022/03/23 05:10:20;;;;;;;12.32;9.10;;;2.00;99.90;;;;;;491831;241;27547;-72
2022/03/23 05:12:27;;;;;;;10.18;7.85;;;2.00;99.90;;;;;;491840;241;27951;-71
2022/03/23 05:14:28;;;;;;;13.45;9.10;;;2.00;99.90;;;;;;491846;241;27438;-75
2022/03/23 05:16:30;;;;;;;10.05;8.60;;;2.10;99.90;;;;;;491816;241;27507;-71
2022/03/23 05:18:31;;;;;;;10.23;7.75;;;2.10;99.90;;;;;;491780;241;27978;-72
2022/03/23 05:20:32;;;;;;;8.95;6.82;;;2.10;99.90;;;;;;491803;241;27971;-72
2022/03/23 05:22:33;;;;;;;11.85;8.98;;;2.10;99.90;;;;;;491753;241;28025;-72
2022/03/23 05:24:35;;;;;;;12.23;8.60;;;2.20;99.90;;;;;;491847;241;27499;-72
2022/03/23 05:26:36;;;;;;;11.07;8.30;;;2.30;99.90;;;;;;491862;241;27516;-72
2022/03/23 05:28:37;;;;;;;14.00;9.38;;;2.30;99.90;;;;;;491832;242;27498;-73
2022/03/23 05:30:38;;;;;;;12.30;9.05;;;2.20;99.90;;;;;;491857;241;27475;-72
2022/03/23 05:32:40;;;;;;;10.93;8.23;;;2.20;99.90;;;;;;491802;241;27533;-72
2022/03/23 05:34:41;;;;;;;12.63;9.07;;;2.20;99.90;;;;;;491839;241;27427;-77
2022/03/23 05:36:42;;;;;;;13.90;9.38;;;2.30;99.90;;;;;;491848;241;27497;-72
2022/03/23 05:38:43;;;;;;;14.63;10.65;;;2.30;99.90;;;;;;491848;241;27955;-73
2022/03/23 05:40:45;;;;;;;14.02;9.35;;;2.40;99.90;;;;;;491830;241;27846;-72
2022/03/23 05:42:46;;;;;;;15.52;10.07;;;2.40;99.90;;;;;;491848;241;27629;-72
2022/03/23 05:44:47;;;;;;;16.67;10.68;;;2.40;99.90;;;;;;491755;241;27439;-73
2022/03/23 05:46:48;;;;;;;14.55;10.50;;;2.50;99.90;;;;;;491871;241;27472;-73
2022/03/23 05:48:50;;;;;;;14.30;9.70;;;2.50;99.90;;;;;;491754;242;27598;-72
2022/03/23 05:50:51;;;;;;;13.23;9.90;;;2.50;99.90;;;;;;491855;242;27562;-72
2022/03/23 05:52:52;;;;;;;12.50;9.48;;;2.50;99.90;;;;;;491875;241;27580;-72
2022/03/23 05:54:53;;;;;;;13.60;9.55;;;2.50;99.90;;;;;;491853;241;27939;-74
2022/03/23 05:56:55;;;;;;;11.27;8.38;;;2.40;99.90;;;;;;491858;242;27916;-72
2022/03/23 05:58:56;;;;;;;11.90;9.25;;;2.40;99.90;;;;;;491878;241;28018;-72
2022/03/23 06:00:57;;;;;;;11.50;9.27;;;2.40;99.90;;;;;;491871;241;27476;-72
2022/03/23 06:02:59;;;;;;;10.95;8.25;;;2.40;99.90;;;;;;491861;241;27530;-72
2022/03/23 06:05:00;;;;;;;12.95;9.70;;;2.50;99.90;;;;;;491875;241;27511;-72
2022/03/23 06:07:01;;;;;;;12.05;9.07;;;2.50;99.90;;;;;;491865;241;27461;-72
2022/03/23 06:09:02;;;;;;;11.77;8.50;;;2.50;99.90;;;;;;491874;241;27982;-71
2022/03/23 06:11:04;;;;;;;11.30;7.65;;;2.60;99.90;;;;;;491883;242;29115;-75
2022/03/23 06:13:13;;;;;;;12.48;8.75;;;2.60;99.90;;;;;;491869;241;27601;-73
2022/03/23 06:15:14;;;;;;;14.35;9.50;;;2.60;99.90;;;;;;491845;241;27497;-73
2022/03/23 06:17:27;;;;;;;13.82;8.85;;;2.50;99.90;;;;;;491811;241;27472;-72
2022/03/23 06:19:29;;;;;;;11.90;8.90;;;2.50;99.90;;;;;;491832;241;27540;-72
2022/03/23 06:21:30;;;;;;;12.65;8.90;;;2.40;99.90;;;;;;491875;241;28078;-73
2022/03/23 06:23:31;;;;;;;13.95;9.35;;;2.50;99.90;;;;;;491815;241;28038;-72
2022/03/23 06:25:32;;;;;;;12.80;9.43;;;2.40;99.90;;;;;;491849;241;27987;-72
2022/03/23 06:27:34;;;;;;;13.27;9.45;;;2.40;99.90;;;;;;491852;241;27547;-71
2022/03/23 06:29:35;;;;;;;13.15;10.05;;;2.40;99.90;;;;;;491846;241;27579;-72
2022/03/23 06:31:36;;;;;;;11.45;8.73;;;2.30;99.90;;;;;;491861;241;27543;-72
2022/03/23 06:33:37;;;;;;;12.98;9.82;;;2.30;99.90;;;;;;491827;241;27469;-72
2022/03/23 06:35:39;;;;;;;13.93;10.35;;;2.40;99.90;;;;;;491841;241;27510;-72
2022/03/23 06:37:40;;;;;;;14.25;9.32;;;2.50;99.90;;;;;;491828;242;27476;-72
2022/03/23 06:41:48;;;;;;;13.57;10.10;;;2.70;99.90;;;;;;491902;239;27476;-72
2022/03/23 06:43:50;;;;;;;14.63;10.32;;;2.80;99.90;;;;;;491876;241;27566;-72
2022/03/23 06:45:51;;;;;;;13.70;9.57;;;2.90;99.90;;;;;;491848;241;27622;-72
2022/03/23 06:47:52;;;;;;;11.98;9.48;;;3.00;99.90;;;;;;491835;241;28084;-72
2022/03/23 06:49:53;;;;;;;15.02;10.77;;;3.10;99.90;;;;;;491845;242;27890;-76
2022/03/23 06:51:55;;;;;;;14.50;9.32;;;3.20;99.90;;;;;;491877;241;29175;-72
2022/03/23 06:53:56;;;;;;;15.38;10.23;;;3.30;99.90;;;;;;491861;241;27617;-72
2022/03/23 06:55:58;;;;;;;12.30;9.48;;;3.40;99.90;;;;;;491855;241;27595;-72
2022/03/23 06:57:59;;;;;;;12.10;9.40;;;3.40;99.90;;;;;;491854;242;27514;-72
2022/03/23 07:00:01;;;;;;;12.88;10.02;;;3.50;99.90;;;;;;491832;241;27507;-76
2022/03/23 07:02:02;;;;;;;13.55;8.88;;;3.50;99.90;;;;;;491850;241;28027;-72
2022/03/23 07:04:05;;;;;;;11.95;8.82;;;3.60;99.90;;;;;;491841;241;27979;-73
2022/03/23 07:06:06;;;;;;;11.55;8.60;;;3.60;99.90;;;;;;491853;241;27510;-72
2022/03/23 07:10:27;;;;;;;11.70;8.07;;;3.90;99.90;;;;;;491817;242;27522;-73
2022/03/23 07:12:29;;;;;;;10.95;8.35;;;4.00;99.90;;;;;;491844;241;27897;-72
2022/03/23 07:14:30;;;;;;;12.13;8.38;;;4.00;99.90;;;;;;491832;241;27968;-72
2022/03/23 07:16:31;;;;;;;13.18;8.63;;;4.20;99.90;;;;;;491853;242;27604;-72
2022/03/23 07:18:32;;;;;;;14.13;9.77;;;4.30;99.90;;;;;;491835;241;27576;-72
2022/03/23 07:20:34;;;;;;;12.15;8.88;;;4.40;99.90;;;;;;491838;241;27488;-73
2022/03/23 07:22:35;;;;;;;15.32;9.38;;;4.50;99.90;;;;;;491825;241;27468;-72
2022/03/23 07:24:36;;;;;;;13.23;9.20;;;4.70;99.90;;;;;;491803;241;27545;-72
2022/03/23 07:26:37;;;;;;;14.77;9.45;;;4.70;99.90;;;;;;491864;241;27884;-72
2022/03/23 07:28:39;;;;;;;13.13;9.48;;;5.00;99.90;;;;;;491863;241;27587;-74
2022/03/23 07:30:43;;;;;;;14.70;9.07;;;5.00;99.90;;;;;;491859;241;28070;-72
2022/03/23 07:32:44;;;;;;;16.73;10.18;;;5.10;99.90;;;;;;491846;241;27562;-74
2022/03/23 07:34:45;;;;;;;15.52;9.50;;;5.10;99.90;;;;;;491855;241;27480;-73
2022/03/23 07:36:47;;;;;;;14.20;9.48;;;5.10;99.90;;;;;;491922;241;27419;-72
2022/03/23 07:38:48;;;;;;;11.23;8.07;;;5.20;99.90;;;;;;491868;241;27990;-74
2022/03/23 07:40:49;;;;;;;14.43;9.00;;;5.30;99.90;;;;;;491868;241;27941;-73
2022/03/23 07:42:54;;;;;;;13.45;9.23;;;5.30;99.90;;;;;;491865;241;27536;-73
2022/03/23 07:44:55;;;;;;;14.93;8.95;;;5.40;99.90;;;;;;491879;241;27415;-72
2022/03/23 07:46:56;;;;;;;12.95;8.40;;;5.50;99.90;;;;;;491894;241;28035;-75
2022/03/23 07:48:57;;;;;;;13.00;8.23;;;5.60;99.90;;;;;;491908;241;27834;-72
2022/03/23 07:50:59;;;;;;;11.02;8.13;;;5.60;99.90;;;;;;491927;241;27504;-74
2022/03/23 07:53:00;;;;;;;15.10;9.30;;;5.90;99.90;;;;;;491922;241;27477;-73
2022/03/23 07:55:01;;;;;;;13.10;8.77;;;5.90;99.90;;;;;;491944;241;27824;-73
2022/03/23 07:57:02;;;;;;;12.40;8.93;;;6.00;99.90;;;;;;491906;241;27895;-73
2022/03/23 07:59:10;;;;;;;11.98;8.82;;;6.10;99.90;;;;;;491892;241;27464;-73
2022/03/23 08:01:11;;;;;;;11.73;8.95;;;6.20;99.90;;;;;;491932;241;27507;-73
2022/03/23 08:03:12;;;;;;;11.12;8.32;;;6.30;99.90;;;;;;491903;241;27448;-77
2022/03/23 08:05:13;;;;;;;11.93;8.75;;;6.30;99.90;;;;;;491945;241;27390;-73
2022/03/23 08:07:15;;;;;;;12.82;8.60;;;6.40;99.90;;;;;;491884;241;27978;-73
2022/03/23 08:09:28;;;;;;;11.63;8.90;;;6.50;99.90;;;;;;491878;241;27823;-73
2022/03/23 08:11:29;;;;;;;13.65;9.05;;;6.60;99.90;;;;;;491898;241;27517;-73
2022/03/23 08:13:30;;;;;;;14.05;9.05;;;6.60;99.90;;;;;;491937;241;27760;-77
2022/03/23 08:15:32;;;;;;;13.07;8.90;;;6.70;99.90;;;;;;491920;241;27462;-73
2022/03/23 08:17:33;;;;;;;16.65;8.85;;;6.90;99.90;;;;;;491897;241;29403;-73
2022/03/23 08:19:35;;;;;;;13.52;9.43;;;7.00;99.90;;;;;;491877;241;27951;-73
2022/03/23 08:21:37;;;;;;;13.10;9.53;;;7.10;99.90;;;;;;491896;241;27526;-73
2022/03/23 08:23:40;;;;;;;11.32;8.93;;;7.30;99.90;;;;;;491873;242;28446;-73
2022/03/23 08:25:41;;;;;;;13.50;9.70;;;7.50;99.90;;;;;;491824;242;28070;-73
2022/03/23 08:27:49;;;;;;;15.77;9.40;;;7.60;99.90;;;;;;491823;242;27390;-73
2022/03/23 08:29:50;;;;;;;14.47;10.30;;;7.70;99.90;;;;;;491912;241;28506;-73
2022/03/23 08:31:58;;;;;;;14.40;10.07;;;7.80;99.90;;;;;;491877;240;28474;-73
2022/03/23 08:33:59;;;;;;;14.20;9.20;;;7.80;99.90;;;;;;491901;241;27701;-73
2022/03/23 08:36:00;;;;;;;18.23;10.30;;;8.00;99.90;;;;;;491859;241;27898;-73
2022/03/23 08:38:01;;;;;;;15.10;10.20;;;8.10;99.90;;;;;;491886;241;28604;-73
2022/03/23 08:40:03;;;;;;;11.77;8.83;;;8.30;99.90;;;;;;491893;241;28410;-74
2022/03/23 08:42:10;;;;;;;11.60;8.47;;;8.40;99.90;;;;;;491907;241;28158;-73
2022/03/23 08:44:12;;;;;;;14.03;8.60;;;8.40;99.90;;;;;;491877;241;27488;-73
2022/03/23 08:46:13;;;;;;;12.93;8.93;;;8.60;99.90;;;;;;491896;241;27954;-73
2022/03/23 08:48:20;;;;;;;12.93;8.63;;;8.70;99.90;;;;;;491898;241;27893;-74
2022/03/23 08:50:22;;;;;;;12.60;8.30;;;9.00;99.90;;;;;;491834;242;27867;-79
2022/03/23 08:52:25;;;;;;;12.00;8.63;;;9.00;99.90;;;;;;491907;241;27867;-73
2022/03/23 08:54:28;;;;;;;11.37;8.40;;;9.20;99.90;;;;;;491918;241;28188;-73
2022/03/23 08:56:27;;;;;;;15.63;10.77;;;9.50;99.90;;;;;;491808;241;27983;-73
2022/03/23 08:58:29;;;;;;;21.30;12.80;;;10.50;99.90;;;;;;491844;241;28227;-73
2022/03/23 09:00:36;;;;;;;19.87;13.27;;;11.20;99.90;;;;;;491870;241;28696;-74
2022/03/23 09:02:37;;;;;;;23.03;13.20;;;11.50;99.90;;;;;;491874;241;27782;-74
2022/03/23 09:04:38;;;;;;;19.77;13.50;;;11.80;99.90;;;;;;491881;242;28600;-75
2022/03/23 09:06:39;;;;;;;20.70;13.70;;;12.00;99.30;;;;;;491887;241;28293;-73
2022/03/23 09:08:41;;;;;;;22.40;14.60;;;11.90;99.60;;;;;;491863;241;28015;-74
2022/03/23 09:10:44;;;;;;;24.03;13.80;;;12.20;99.00;;;;;;491891;241;28032;-74
2022/03/23 09:12:45;;;;;;;23.97;14.80;;;12.10;97.20;;;;;;491876;241;27656;-73
2022/03/23 09:14:53;;;;;;;21.47;13.97;;;12.20;97.40;;;;;;491913;241;28526;-74
2022/03/23 09:16:54;;;;;;;21.40;13.90;;;12.40;96.30;;;;;;491880;241;28154;-74
2022/03/23 09:18:55;;;;;;;22.20;14.27;;;12.30;95.80;;;;;;491890;241;27864;-75
2022/03/23 09:20:56;;;;;;;22.40;14.37;;;12.50;95.60;;;;;;491879;241;29391;-74
2022/03/23 09:23:11;;;;;;;19.30;13.87;;;12.40;95.60;;;;;;491888;241;28048;-74
2022/03/23 09:25:12;;;;;;;22.30;14.93;;;12.50;94.60;;;;;;491889;241;28160;-74
2022/03/23 09:27:14;;;;;;;21.67;13.27;;;12.60;94.10;;;;;;491857;241;28794;-74
2022/03/23 09:29:15;;;;;;;23.27;14.10;;;12.70;93.90;;;;;;491867;241;28673;-74
2022/03/23 09:31:16;;;;;;;21.33;14.20;;;12.70;93.30;;;;;;491912;242;28208;-74
2022/03/23 09:33:17;;;;;;;23.00;14.33;;;12.70;93.10;;;;;;491911;242;28134;-74
2022/03/23 09:35:18;;;;;;;21.23;13.47;;;12.70;92.40;;;;;;491884;241;28430;-74
2022/03/23 09:38:04;;;;;;;19.47;13.10;;;12.70;92.60;;;;;;491913;241;28356;-74
2022/03/23 09:39:24;;;;;;;20.90;14.60;;;12.80;90.90;;;;;;488900;242;29014;-74
2022/03/23 09:41:37;;;;;;;18.43;13.50;;;12.90;91.30;;;;;;491939;241;28090;-76
2022/03/23 09:43:39;;;;;;;22.37;12.83;;;12.90;91.60;;;;;;491868;241;28466;-74
2022/03/23 09:45:50;;;;;;;17.47;12.43;;;13.00;91.80;;;;;;491866;241;29089;-74
2022/03/23 09:47:51;;;;;;;25.30;13.03;;;13.00;92.10;;;;;;491876;242;28209;-73
2022/03/23 09:49:58;;;;;;;18.90;12.73;;;13.20;91.80;;;;;;491903;241;29040;-74
2022/03/23 09:51:59;;;;;;;23.83;13.50;;;13.20;91.90;;;;;;491905;241;28503;-75
2022/03/23 09:54:03;;;;;;;20.83;13.33;;;13.00;91.70;;;;;;491927;241;28539;-74
2022/03/23 09:56:04;;;;;;;18.40;12.23;;;13.00;91.30;;;;;;491881;241;28608;-79
2022/03/23 09:58:06;;;;;;;19.27;13.10;;;13.10;90.90;;;;;;491870;241;28949;-74
2022/03/23 10:00:19;;;;;;;20.43;13.50;;;13.30;90.50;;;;;;491856;241;29128;-73
2022/03/23 10:02:20;;;;;;;21.10;13.13;;;13.20;89.50;;;;;;491870;241;28227;-74
2022/03/23 10:04:33;;;;;;;18.73;13.83;;;13.40;90.30;;;;;;491881;241;29387;-74
2022/03/23 10:06:32;;;;;;;21.83;14.20;;;13.30;88.30;;;;;;491827;241;28633;-74
2022/03/23 10:08:34;;;;;;;22.80;12.43;;;13.40;89.50;;;;;;491872;241;28899;-74
2022/03/23 10:10:36;;;;;;;24.37;14.20;;;13.50;87.70;;;;;;491898;241;28863;-74
2022/03/23 10:12:37;;;;;;;15.63;12.13;;;13.40;87.60;;;;;;491875;241;28654;-74
2022/03/23 10:14:40;;;;;;;16.83;11.70;;;;;;;;;;491882;241;29448;-75
2022/03/23 10:19:08;;;;;;;17.40;11.50;;;;;;;;;;491901;242;29815;-74
2022/03/23 10:21:18;;;;;;;22.07;13.40;;;13.50;87.30;;;;;;491888;242;26716;-74
2022/03/23 10:23:20;;;;;;;18.30;12.20;;;13.70;86.10;;;;;;491877;242;28920;-74
2022/03/23 10:25:23;;;;;;;17.30;11.20;;;13.50;86.20;;;;;;491864;241;28931;-74
2022/03/23 10:29:33;;;;;;;17.80;12.10;;;13.60;83.90;;;;;;491899;241;28220;-74
2022/03/23 10:31:50;;;;;;;15.77;10.80;;;13.60;86.60;;;;;;491899;241;29181;-74
2022/03/23 10:33:51;;;;;;;15.17;10.37;;;13.40;85.80;;;;;;491898;241;28218;-74
2022/03/23 10:35:55;;;;;;;18.20;13.00;;;13.20;85.80;;;;;;491898;241;28781;-74
2022/03/23 10:38:02;;;;;;;15.10;11.37;;;;;;;;;;491781;241;28672;-74
2022/03/23 10:40:03;;;;;;;17.50;11.10;;;13.30;83.90;;;;;;491885;242;27178;-75
2022/03/23 10:42:05;;;;;;;22.70;11.80;;;13.30;85.80;;;;;;491844;242;28197;-74
2022/03/23 10:44:15;;;;;;;21.83;11.90;;;13.50;83.50;;;;;;491862;242;28336;-74
2022/03/23 10:46:17;;;;;;;18.30;12.77;;;13.90;83.10;;;;;;491908;241;28073;-74
2022/03/23 10:48:23;;;;;;;18.13;11.90;;;13.90;81.40;;;;;;491823;241;28824;-74
2022/03/23 10:50:26;;;;;;;17.07;11.40;;;13.70;82.90;;;;;;491899;241;28177;-74
2022/03/23 10:54:46;;;;;;;16.97;11.67;;;14.10;83.40;;;;;;491865;242;28790;-74
2022/03/23 10:56:51;;;;;;;17.40;11.37;;;14.00;81.90;;;;;;491898;241;28368;-74
2022/03/23 10:58:52;;;;;;;16.97;11.90;;;14.00;82.40;;;;;;491931;241;28306;-74